createdAt,value
2018-02-16T00:02:25.805Z,20.67
2018-02-16T00:04:54.193Z,19.13
2018-02-16T00:07:22.615Z,18.60
2018-02-16T00:09:50.255Z,16.40
2018-02-16T00:12:18.615Z,17.00
2018-02-16T00:14:46.257Z,18.10
2018-02-16T00:17:13.868Z,16.97
2018-02-16T00:19:41.472Z,16.87
2018-02-16T00:22:09.819Z,19.27
2018-02-16T00:24:37.416Z,17.57
2018-02-16T00:27:05.903Z,17.20
2018-02-16T00:29:33.520Z,16.00
2018-02-16T00:32:01.108Z,19.30
2018-02-16T00:34:28.724Z,16.87
2018-02-16T00:36:56.336Z,16.77
2018-02-16T00:39:24.022Z,16.93
2018-02-16T00:41:51.611Z,19.23
2018-02-16T00:44:19.275Z,17.97
2018-02-16T00:46:46.892Z,18.30
2018-02-16T00:49:15.288Z,17.30
2018-02-16T00:51:43.713Z,17.87
2018-02-16T00:54:11.369Z,17.20
2018-02-16T00:56:39.739Z,17.70
2018-02-16T00:59:07.404Z,18.40
2018-02-16T01:01:35.002Z,19.07
2018-02-16T01:04:03.432Z,17.00
2018-02-16T01:06:31.091Z,20.73
2018-02-16T01:08:58.711Z,18.17
2018-02-16T01:11:26.301Z,17.77
2018-02-16T01:13:54.740Z,20.23
2018-02-16T01:16:22.376Z,18.40
2018-02-16T01:18:50.867Z,19.20
2018-02-16T01:21:19.310Z,18.17
2018-02-16T01:23:46.927Z,18.37
2018-02-16T01:26:14.499Z,17.90
2018-02-16T01:28:42.152Z,17.73
2018-02-16T01:31:09.763Z,20.27
2018-02-16T01:33:38.152Z,19.20
2018-02-16T01:36:06.506Z,18.33
2018-02-16T01:38:34.115Z,20.70
2018-02-16T01:41:02.487Z,21.70
2018-02-16T01:43:30.077Z,17.30
2018-02-16T01:45:58.541Z,19.00
2018-02-16T01:48:26.140Z,18.30
2018-02-16T01:50:54.529Z,19.97
2018-02-16T01:53:22.945Z,17.70
2018-02-16T01:55:50.551Z,19.60
2018-02-16T01:58:18.162Z,20.60
2018-02-16T02:00:46.576Z,19.43
2018-02-16T02:03:14.247Z,19.23
2018-02-16T02:05:42.639Z,20.80
2018-02-16T02:08:10.211Z,20.10
2018-02-16T02:10:37.848Z,18.73
2018-02-16T02:13:05.483Z,21.10
2018-02-16T02:15:33.148Z,19.80
2018-02-16T02:18:00.743Z,18.60
2018-02-16T02:20:28.362Z,19.23
2018-02-16T02:22:56.748Z,19.67
2018-02-16T02:25:25.143Z,21.17
2018-02-16T02:27:53.548Z,20.53
2018-02-16T02:30:21.162Z,18.40
2018-02-16T02:32:48.785Z,20.93
2018-02-16T02:35:17.204Z,19.73
2018-02-16T02:37:44.812Z,20.33
2018-02-16T02:40:12.446Z,21.37
2018-02-16T02:42:40.040Z,21.87
2018-02-16T02:45:07.664Z,24.50
2018-02-16T02:47:36.059Z,22.40
2018-02-16T02:50:04.479Z,19.53
2018-02-16T02:52:32.128Z,20.97
2018-02-16T02:55:00.499Z,22.63
2018-02-16T02:57:28.128Z,24.13
2018-02-16T02:59:55.716Z,20.67
2018-02-16T03:02:23.343Z,23.03
2018-02-16T03:04:51.726Z,23.60
2018-02-16T03:07:20.128Z,24.73
2018-02-16T03:09:47.715Z,25.20
2018-02-16T03:12:15.448Z,23.97
2018-02-16T03:14:43.035Z,23.63
2018-02-16T03:17:11.459Z,22.47
2018-02-16T03:19:39.064Z,22.10
2018-02-16T03:22:06.691Z,21.63
2018-02-16T03:24:34.333Z,23.23
2018-02-16T03:27:01.963Z,22.30
2018-02-16T03:29:29.562Z,21.67
2018-02-16T03:31:57.218Z,22.67
2018-02-16T03:34:24.821Z,21.53
2018-02-16T03:36:52.468Z,22.67
2018-02-16T03:39:20.087Z,23.70
2018-02-16T03:41:48.483Z,21.43
2018-02-16T03:44:16.904Z,21.07
2018-02-16T03:46:44.527Z,23.37
2018-02-16T03:49:12.118Z,21.70
2018-02-16T03:51:40.498Z,18.40
2018-02-16T03:54:08.861Z,20.93
2018-02-16T03:56:36.500Z,23.20
2018-02-16T03:59:04.167Z,21.60
2018-02-16T04:01:31.780Z,19.93
2018-02-16T04:03:59.397Z,22.83
2018-02-16T04:06:27.787Z,23.33
2018-02-16T04:08:56.164Z,21.73
2018-02-16T04:11:24.711Z,19.53
2018-02-16T04:13:52.339Z,19.67
2018-02-16T04:16:20.736Z,19.97
2018-02-16T04:18:49.135Z,21.27
2018-02-16T04:21:16.767Z,22.07
2018-02-16T04:23:44.441Z,21.47
2018-02-16T04:26:12.084Z,21.57
2018-02-16T04:28:39.758Z,21.50
2018-02-16T04:31:07.400Z,21.37
2018-02-16T04:33:35.024Z,16.60
2018-02-16T04:36:02.650Z,20.97
2018-02-16T04:38:31.104Z,19.27
2018-02-16T04:40:58.744Z,21.87
2018-02-16T04:43:26.364Z,24.17
2018-02-16T04:45:54.751Z,20.90
2018-02-16T04:48:22.367Z,23.87
2018-02-16T04:50:50.052Z,20.83
2018-02-16T04:53:17.666Z,19.80
2018-02-16T04:55:45.284Z,23.10
2018-02-16T04:58:12.899Z,22.47
2018-02-16T05:00:40.520Z,21.93
2018-02-16T05:03:08.167Z,20.47
2018-02-16T05:05:35.780Z,22.23
2018-02-16T05:08:03.427Z,14.47
2018-02-16T05:10:31.796Z,20.20
2018-02-16T05:12:59.420Z,19.30
2018-02-16T05:15:27.042Z,21.37
2018-02-16T05:17:54.677Z,21.47
2018-02-16T05:20:22.307Z,19.23
2018-02-16T05:22:51.158Z,17.10
2018-02-16T05:25:18.784Z,22.00
2018-02-16T05:27:47.183Z,17.80
2018-02-16T05:30:15.576Z,19.73
2018-02-16T05:32:44.015Z,18.87
2018-02-16T05:35:11.628Z,16.33
2018-02-16T05:37:40.062Z,16.17
2018-02-16T05:40:07.662Z,18.03
2018-02-16T05:42:35.287Z,20.00
2018-02-16T05:45:02.915Z,20.33
2018-02-16T05:47:30.552Z,20.50
2018-02-16T05:49:58.154Z,20.27
2018-02-16T05:52:25.811Z,19.17
2018-02-16T05:54:53.399Z,18.13
2018-02-16T05:57:21.827Z,18.73
2018-02-16T05:59:50.220Z,17.00
2018-02-16T06:02:18.681Z,18.70
2018-02-16T06:04:46.312Z,17.20
2018-02-16T06:07:13.963Z,18.53
2018-02-16T06:09:42.488Z,19.30
2018-02-16T06:12:10.112Z,16.77
2018-02-16T06:14:37.747Z,15.80
2018-02-16T06:17:05.365Z,16.23
2018-02-16T06:19:37.479Z,16.40
2018-02-16T06:22:05.123Z,14.20
2018-02-16T06:24:33.524Z,17.13
2018-02-16T06:27:02.053Z,14.03
2018-02-16T06:29:29.763Z,15.67
2018-02-16T06:31:57.408Z,17.07
2018-02-16T06:34:25.059Z,15.03
2018-02-16T06:36:52.811Z,15.33
2018-02-16T06:39:20.407Z,16.13
2018-02-16T06:41:48.013Z,15.00
2018-02-16T06:44:15.640Z,14.10
2018-02-16T06:46:43.231Z,13.87
2018-02-16T06:49:10.955Z,14.53
2018-02-16T06:51:38.569Z,14.20
2018-02-16T06:54:06.235Z,13.53
2018-02-16T06:56:34.739Z,14.37
2018-02-16T06:59:02.388Z,12.87
2018-02-16T07:01:30.783Z,13.30
2018-02-16T07:03:59.174Z,13.23
2018-02-16T07:06:27.579Z,15.10
2018-02-16T07:08:55.316Z,12.73
2018-02-16T07:11:22.914Z,14.00
2018-02-16T07:13:51.308Z,11.63
2018-02-16T07:16:19.837Z,13.80
2018-02-16T07:18:47.524Z,14.30
2018-02-16T07:21:15.110Z,14.23
2018-02-16T07:23:42.784Z,12.13
2018-02-16T07:26:10.535Z,12.90
2018-02-16T07:28:38.195Z,12.83
2018-02-16T07:31:05.840Z,12.80
2018-02-16T07:33:33.453Z,12.13
2018-02-16T07:36:01.052Z,13.47
2018-02-16T07:38:28.672Z,11.90
2018-02-16T07:40:57.071Z,12.73
2018-02-16T07:43:24.781Z,12.27
2018-02-16T07:45:52.386Z,13.90
2018-02-16T07:48:20.004Z,15.07
2018-02-16T07:50:47.596Z,11.80
2018-02-16T07:53:15.239Z,12.70
2018-02-16T07:55:42.895Z,12.13
2018-02-16T07:58:11.323Z,11.37
2018-02-16T08:00:38.941Z,11.43
2018-02-16T08:03:06.571Z,11.10
2018-02-16T08:05:34.155Z,10.33
2018-02-16T08:08:01.951Z,11.10
2018-02-16T08:10:29.554Z,11.93
2018-02-16T08:12:57.966Z,14.23
2018-02-16T08:15:25.568Z,12.17
2018-02-16T08:17:53.197Z,12.60
2018-02-16T08:20:21.595Z,14.00
2018-02-16T08:22:49.219Z,12.30
2018-02-16T08:25:16.837Z,10.17
2018-02-16T08:27:45.240Z,12.83
2018-02-16T08:30:12.824Z,12.10
2018-02-16T08:32:41.199Z,12.73
2018-02-16T08:35:08.909Z,12.13
2018-02-16T08:37:36.605Z,16.58
2018-02-16T08:40:04.254Z,14.10
2018-02-16T08:42:31.908Z,12.23
2018-02-16T08:44:59.538Z,9.90
2018-02-16T08:47:27.168Z,12.93
2018-02-16T08:49:54.795Z,11.73
2018-02-16T08:52:23.175Z,12.87
2018-02-16T08:54:50.793Z,9.93
2018-02-16T08:57:18.401Z,10.50
2018-02-16T08:59:46.281Z,10.70
2018-02-16T09:02:13.956Z,10.33
2018-02-16T09:04:41.576Z,10.80
2018-02-16T09:07:10.006Z,11.27
2018-02-16T09:09:37.636Z,12.03
2018-02-16T09:12:05.446Z,11.60
2018-02-16T09:14:33.093Z,10.17
2018-02-16T09:17:01.465Z,9.87
2018-02-16T09:19:29.109Z,11.00
2018-02-16T09:21:56.748Z,11.57
2018-02-16T09:24:24.399Z,9.90
2018-02-16T09:26:52.747Z,9.97
2018-02-16T09:29:20.419Z,10.30
2018-02-16T09:31:48.091Z,9.30
2018-02-16T09:34:15.667Z,11.13
2018-02-16T09:36:43.391Z,10.40
2018-02-16T09:39:18.088Z,9.90
2018-02-16T09:41:45.751Z,10.50
2018-02-16T09:44:13.509Z,7.93
2018-02-16T09:46:41.097Z,9.93
2018-02-16T09:49:08.739Z,8.10
2018-02-16T09:51:36.363Z,8.67
2018-02-16T09:54:04.008Z,8.87
2018-02-16T09:56:31.723Z,7.90
2018-02-16T09:59:00.122Z,8.17
2018-02-16T10:01:27.713Z,7.23
2018-02-16T10:03:56.120Z,8.17
2018-02-16T10:06:23.745Z,7.50
2018-02-16T10:08:51.361Z,8.23
2018-02-16T10:11:18.977Z,8.23
2018-02-16T10:13:46.600Z,7.10
2018-02-16T10:16:15.001Z,8.47
2018-02-16T10:18:42.632Z,7.43
2018-02-16T10:21:10.358Z,8.73
2018-02-16T10:23:38.144Z,10.10
2018-02-16T10:26:05.783Z,7.60
2018-02-16T10:28:34.193Z,8.80
2018-02-16T10:31:01.780Z,7.60
2018-02-16T10:33:29.412Z,10.33
2018-02-16T10:35:57.815Z,9.30
2018-02-16T10:38:26.209Z,8.43
2018-02-16T10:40:54.591Z,8.30
2018-02-16T10:43:22.995Z,8.10
2018-02-16T10:45:50.574Z,8.93
2018-02-16T10:48:18.190Z,8.20
2018-02-16T10:50:45.852Z,6.67
2018-02-16T10:53:13.465Z,7.40
2018-02-16T10:55:41.051Z,8.13
2018-02-16T10:58:09.421Z,8.83
2018-02-16T11:00:42.829Z,7.30
2018-02-16T11:03:16.087Z,8.13
2018-02-16T11:05:49.393Z,8.87
2018-02-16T11:08:22.529Z,8.73
2018-02-16T11:10:50.159Z,7.87
2018-02-16T11:13:17.752Z,8.13
2018-02-16T11:15:45.366Z,8.10
2018-02-16T11:18:13.028Z,8.30
2018-02-16T11:20:40.640Z,7.97
2018-02-16T11:23:08.983Z,8.07
2018-02-16T11:25:36.632Z,8.37
2018-02-16T11:28:04.273Z,7.13
2018-02-16T11:30:32.729Z,7.93
2018-02-16T11:33:00.328Z,7.47
2018-02-16T11:35:28.742Z,7.20
2018-02-16T11:37:56.353Z,6.60
2018-02-16T11:40:24.000Z,8.27
2018-02-16T11:42:51.622Z,6.87
2018-02-16T11:45:19.199Z,6.93
2018-02-16T11:47:46.779Z,7.93
2018-02-16T11:50:15.153Z,7.23
2018-02-16T11:52:42.759Z,6.57
2018-02-16T11:55:11.128Z,6.57
2018-02-16T11:57:38.729Z,7.63
2018-02-16T12:00:06.546Z,7.83
2018-02-16T12:02:34.152Z,6.83
2018-02-16T12:05:01.735Z,7.60
2018-02-16T12:07:30.159Z,8.00
2018-02-16T12:09:57.775Z,7.73
2018-02-16T12:12:25.922Z,8.37
2018-02-16T12:14:53.595Z,8.27
2018-02-16T12:17:21.272Z,7.57
2018-02-16T12:19:48.869Z,7.77
2018-02-16T12:22:16.485Z,7.93
2018-02-16T12:24:44.877Z,7.47
2018-02-16T12:27:12.568Z,7.57
2018-02-16T12:29:40.173Z,6.87
2018-02-16T12:32:07.795Z,6.87
2018-02-16T12:34:35.432Z,7.13
2018-02-16T12:37:03.028Z,6.70
2018-02-16T12:39:31.392Z,6.80
2018-02-16T12:41:59.027Z,6.70
2018-02-16T12:44:26.628Z,6.47
2018-02-16T12:46:54.251Z,7.00
2018-02-16T12:49:22.692Z,5.87
2018-02-16T12:51:50.439Z,6.13
2018-02-16T12:54:18.022Z,5.67
2018-02-16T12:56:45.618Z,5.40
2018-02-16T12:59:13.249Z,6.23
2018-02-16T13:01:40.894Z,4.93
2018-02-16T13:04:09.280Z,5.63
2018-02-16T13:06:36.907Z,6.03
2018-02-16T13:09:04.563Z,5.43
2018-02-16T13:11:32.201Z,7.20
2018-02-16T13:14:00.573Z,6.83
2018-02-16T13:16:28.240Z,6.47
2018-02-16T13:18:55.867Z,6.63
2018-02-16T13:21:24.201Z,7.33
2018-02-16T13:23:51.808Z,5.47
2018-02-16T13:26:19.374Z,6.93
2018-02-16T13:28:47.744Z,6.40
2018-02-16T13:31:15.413Z,6.20
2018-02-16T13:33:43.042Z,6.90
2018-02-16T13:36:11.599Z,7.83
2018-02-16T13:38:39.216Z,8.77
2018-02-16T13:41:06.823Z,8.80
2018-02-16T13:43:36.303Z,8.33
2018-02-16T13:46:04.804Z,8.00
2018-02-16T13:48:32.430Z,8.07
2018-02-16T13:51:00.029Z,9.60
2018-02-16T13:53:28.440Z,9.20
2018-02-16T13:55:56.069Z,9.57
2018-02-16T13:58:23.741Z,10.63
2018-02-16T14:00:51.366Z,11.07
2018-02-16T14:03:19.046Z,10.37
2018-02-16T14:05:46.653Z,10.80
2018-02-16T14:08:14.255Z,9.90
2018-02-16T14:10:42.632Z,9.23
2018-02-16T14:13:10.265Z,9.30
2018-02-16T14:15:37.893Z,9.43
2018-02-16T14:18:06.284Z,11.37
2018-02-16T14:20:34.672Z,11.00
2018-02-16T14:23:03.040Z,10.50
2018-02-16T14:25:31.419Z,12.50
2018-02-16T14:27:59.069Z,10.90
2018-02-16T14:30:26.722Z,11.50
2018-02-16T14:32:54.315Z,12.93
2018-02-16T14:35:21.971Z,11.97
2018-02-16T14:37:49.554Z,11.20
2018-02-16T14:40:17.234Z,10.77
2018-02-16T14:42:44.844Z,11.83
2018-02-16T14:45:12.533Z,11.20
2018-02-16T14:47:40.260Z,10.60
2018-02-16T14:50:07.953Z,10.43
2018-02-16T14:52:35.580Z,11.83
2018-02-16T14:55:03.989Z,11.33
2018-02-16T14:57:31.591Z,12.60
2018-02-16T14:59:59.261Z,12.77
2018-02-16T15:02:27.601Z,13.07
2018-02-16T15:04:55.256Z,11.50
2018-02-16T15:07:22.876Z,10.10
2018-02-16T15:09:50.495Z,11.00
2018-02-16T15:12:18.127Z,10.93
2018-02-16T15:14:45.720Z,10.60
2018-02-16T15:17:13.345Z,9.90
2018-02-16T15:19:40.907Z,10.63
2018-02-16T15:22:09.309Z,10.13
2018-02-16T15:24:37.738Z,10.60
2018-02-16T15:27:05.360Z,10.23
2018-02-16T15:29:33.729Z,9.77
2018-02-16T15:32:01.332Z,9.90
2018-02-16T15:34:29.707Z,11.10
2018-02-16T15:36:57.433Z,10.43
2018-02-16T15:39:25.055Z,9.97
2018-02-16T15:41:53.436Z,10.30
2018-02-16T15:44:21.037Z,9.53
2018-02-16T15:46:49.422Z,10.43
2018-02-16T15:49:17.824Z,10.33
2018-02-16T15:51:46.211Z,11.20
2018-02-16T15:54:14.596Z,11.07
2018-02-16T15:56:43.060Z,12.60
2018-02-16T15:59:10.679Z,12.60
2018-02-16T16:01:38.270Z,11.90
2018-02-16T16:04:05.886Z,12.47
2018-02-16T16:06:33.517Z,13.30
2018-02-16T16:09:01.128Z,13.10
2018-02-16T16:11:28.757Z,13.10
2018-02-16T16:13:56.439Z,11.50
2018-02-16T16:16:24.059Z,12.00
2018-02-16T16:18:51.719Z,10.73
2018-02-16T16:21:19.402Z,10.50
2018-02-16T16:23:47.044Z,10.63
2018-02-16T16:26:14.723Z,10.70
2018-02-16T16:28:42.401Z,9.83
2018-02-16T16:31:10.008Z,15.70
2018-02-16T16:33:38.407Z,15.87
2018-02-16T16:36:06.037Z,15.23
2018-02-16T16:38:33.692Z,16.40
2018-02-16T16:41:01.672Z,14.27
2018-02-16T16:43:29.324Z,15.10
2018-02-16T16:45:57.706Z,15.70
2018-02-16T16:48:25.406Z,14.67
2018-02-16T16:50:53.005Z,15.40
2018-02-16T16:53:20.627Z,14.97
2018-02-16T16:55:49.003Z,14.93
2018-02-16T16:58:16.571Z,14.70
2018-02-16T17:00:44.202Z,16.10
2018-02-16T17:03:11.821Z,14.07
2018-02-16T17:05:39.516Z,13.37
2018-02-16T17:08:07.906Z,13.37
2018-02-16T17:10:36.322Z,16.93
2018-02-16T17:13:03.987Z,14.70
2018-02-16T17:15:32.367Z,15.17
2018-02-16T17:17:59.965Z,20.53
2018-02-16T17:20:27.639Z,17.80
2018-02-16T17:22:55.242Z,15.53
2018-02-16T17:25:23.305Z,15.43
2018-02-16T17:27:51.070Z,12.47
2018-02-16T17:30:18.700Z,11.93
2018-02-16T17:32:47.087Z,12.03
2018-02-16T17:35:14.732Z,14.93
2018-02-16T17:37:42.337Z,14.13
2018-02-16T17:40:10.733Z,14.37
2018-02-16T17:42:39.111Z,13.57
2018-02-16T17:45:06.714Z,14.77
2018-02-16T17:47:34.342Z,16.50
2018-02-16T17:50:01.976Z,13.40
2018-02-16T17:55:23.149Z,16.47
2018-02-16T17:57:50.762Z,14.80
2018-02-16T18:00:18.405Z,15.60
2018-02-16T18:02:46.029Z,13.83
2018-02-16T18:05:14.456Z,15.27
2018-02-16T18:07:42.052Z,16.43
2018-02-16T18:10:09.683Z,14.00
2018-02-16T18:12:37.277Z,16.47
2018-02-16T18:15:04.860Z,18.10
2018-02-16T18:17:32.453Z,17.80
2018-02-16T18:20:00.079Z,17.43
2018-02-16T18:22:27.699Z,18.00
2018-02-16T18:24:55.347Z,19.87
2018-02-16T18:27:23.001Z,19.47
2018-02-16T18:29:50.624Z,20.13
2018-02-16T18:32:18.277Z,17.87
2018-02-16T18:34:45.903Z,20.07
2018-02-16T18:37:14.338Z,19.03
2018-02-16T18:39:41.971Z,14.23
2018-02-16T18:42:09.588Z,16.03
2018-02-16T18:44:37.240Z,16.27
2018-02-16T18:47:04.839Z,14.00
2018-02-16T18:49:32.537Z,19.63
2018-02-16T18:52:00.122Z,19.93
2018-02-16T18:54:28.529Z,19.53
2018-02-16T18:56:56.167Z,17.73
2018-02-16T18:59:23.773Z,17.10
2018-02-16T19:01:51.419Z,18.10
2018-02-16T19:04:19.025Z,15.80
2018-02-16T19:06:46.676Z,14.37
2018-02-16T19:09:15.040Z,14.07
2018-02-16T19:11:42.691Z,13.93
2018-02-16T19:14:10.365Z,14.90
2018-02-16T19:16:38.041Z,15.80
2018-02-16T19:19:06.564Z,15.50
2018-02-16T19:21:34.968Z,14.20
2018-02-16T19:24:02.586Z,15.13
2018-02-16T19:26:30.228Z,12.93
2018-02-16T19:28:58.623Z,12.93
2018-02-16T19:31:26.288Z,10.87
2018-02-16T19:33:53.911Z,12.17
2018-02-16T19:36:21.552Z,11.90
2018-02-16T19:38:49.173Z,13.43
2018-02-16T19:41:16.955Z,12.93
2018-02-16T19:43:44.603Z,13.00
2018-02-16T19:46:12.259Z,14.77
2018-02-16T19:48:40.785Z,13.13
2018-02-16T19:51:09.341Z,13.33
2018-02-16T19:53:36.967Z,15.33
2018-02-16T19:56:04.596Z,13.67
2018-02-16T19:58:32.217Z,15.03
2018-02-16T20:01:00.162Z,15.60
2018-02-16T20:03:27.819Z,18.60
2018-02-16T20:05:55.443Z,16.13
2018-02-16T20:08:23.098Z,11.80
2018-02-16T20:10:50.738Z,10.20
2018-02-16T20:13:18.327Z,11.10
2018-02-16T20:15:46.923Z,10.60
2018-02-16T20:18:15.314Z,9.63
2018-02-16T20:20:43.037Z,9.73
2018-02-16T20:23:11.176Z,12.43
2018-02-16T20:25:39.567Z,12.80
2018-02-16T20:28:08.001Z,11.73
2018-02-16T20:30:35.646Z,12.80
2018-02-16T20:33:03.279Z,12.13
2018-02-16T20:35:31.684Z,12.93
2018-02-16T20:37:59.332Z,13.57
2018-02-16T20:40:26.983Z,15.07
2018-02-16T20:42:54.601Z,12.70
2018-02-16T20:45:22.232Z,11.27
2018-02-16T20:47:49.832Z,8.63
2018-02-16T20:50:18.664Z,11.47
2018-02-16T20:52:46.293Z,11.40
2018-02-16T20:55:14.740Z,9.07
2018-02-16T20:57:42.610Z,11.50
2018-02-16T21:00:10.292Z,10.50
2018-02-16T21:02:37.938Z,13.57
2018-02-16T21:05:05.611Z,14.53
2018-02-16T21:07:33.236Z,13.97
2018-02-16T21:10:00.860Z,9.17
2018-02-16T21:12:28.482Z,14.00
2018-02-16T21:14:56.095Z,13.07
2018-02-16T21:17:23.739Z,13.47
2018-02-16T21:19:51.409Z,14.23
2018-02-16T21:22:19.036Z,15.53
2018-02-16T21:24:46.637Z,15.27
2018-02-16T21:27:14.330Z,14.53
2018-02-16T21:29:41.958Z,12.60
2018-02-16T21:32:09.625Z,13.93
2018-02-16T21:34:37.238Z,13.57
2018-02-16T21:37:04.924Z,13.20
2018-02-16T21:39:32.564Z,11.33
2018-02-16T21:42:00.174Z,11.27
2018-02-16T21:44:27.771Z,11.73
2018-02-16T21:46:56.607Z,10.97
2018-02-16T21:49:24.224Z,12.60
2018-02-16T21:51:51.922Z,14.60
2018-02-16T21:54:19.867Z,11.27
2018-02-16T21:56:47.499Z,12.87
2018-02-16T21:59:15.141Z,13.30
2018-02-16T22:01:43.569Z,13.93
2018-02-16T22:04:17.071Z,13.37
2018-02-16T22:06:44.784Z,14.73
2018-02-16T22:12:13.153Z,13.10
2018-02-16T22:14:41.683Z,13.13
2018-02-16T22:17:09.303Z,14.50
2018-02-16T22:19:36.919Z,13.30
2018-02-16T22:22:04.503Z,13.90
2018-02-16T22:24:32.293Z,14.17
2018-02-16T22:26:59.929Z,14.13
2018-02-16T22:29:27.568Z,13.87
2018-02-16T22:31:55.216Z,13.07
2018-02-16T22:34:22.831Z,15.83
2018-02-16T22:36:51.235Z,14.30
2018-02-16T22:39:19.649Z,14.97
2018-02-16T22:41:47.295Z,14.80
2018-02-16T22:44:15.248Z,14.47
2018-02-16T22:46:42.877Z,13.00
2018-02-16T22:49:10.824Z,12.97
2018-02-16T22:51:38.491Z,12.83
2018-02-16T22:54:06.189Z,13.97
2018-02-16T22:56:34.604Z,13.07
2018-02-16T22:59:02.507Z,17.80
2018-02-16T23:01:30.135Z,15.57
2018-02-16T23:03:58.566Z,14.87
2018-02-16T23:06:26.235Z,14.70
2018-02-16T23:08:53.828Z,14.47
2018-02-16T23:11:21.469Z,13.80
2018-02-16T23:13:49.071Z,14.07
2018-02-16T23:16:16.713Z,17.03
2018-02-16T23:18:44.502Z,14.10
2018-02-16T23:21:12.108Z,15.60
2018-02-16T23:23:39.764Z,16.53
2018-02-16T23:26:07.365Z,15.03
2018-02-16T23:28:34.992Z,15.30
2018-02-16T23:31:02.649Z,15.40
2018-02-16T23:33:30.295Z,16.90
2018-02-16T23:35:58.660Z,14.17
2018-02-16T23:38:26.312Z,16.33
2018-02-16T23:40:53.921Z,16.27
2018-02-16T23:43:22.272Z,18.50
2018-02-16T23:45:50.669Z,16.53
2018-02-16T23:48:19.072Z,18.60
2018-02-16T23:50:47.445Z,17.73
2018-02-16T23:53:15.074Z,17.93
2018-02-16T23:55:42.708Z,17.13
2018-02-16T23:58:11.100Z,17.57
